Time;durP1;ratioP1;P1;durP2;ratioP2;P2;SDS_P1;SDS_P2;PMS_P1;PMS_P2;Temp;Humidity;BMP_temperature;BMP_pressure;BME280_temperature;BME280_humidity;BME280_pressure;Samples;Min_cycle;Max_cycle;Signal;HPM_P1;HPM_P2
2021/08/19 00:02:06;;;;;;;6.47;3.00;;;15.40;99.90;;;;;;5070035;28;20050;-70
2021/08/19 00:04:32;;;;;;;6.28;3.10;;;15.40;99.90;;;;;;5067650;28;20032;-69
2021/08/19 00:06:57;;;;;;;6.63;2.90;;;15.30;99.90;;;;;;5070203;28;20111;-69
2021/08/19 00:09:23;;;;;;;7.55;3.65;;;15.30;99.90;;;;;;5070381;28;20103;-69
2021/08/19 00:11:48;;;;;;;7.18;3.05;;;15.30;99.90;;;;;;5070281;28;20094;-69
2021/08/19 00:14:14;;;;;;;12.63;3.60;;;15.30;99.90;;;;;;5069355;28;20044;-70
2021/08/19 00:16:39;;;;;;;7.53;3.70;;;15.30;99.90;;;;;;5070050;28;20031;-70
2021/08/19 00:19:05;;;;;;;7.13;3.55;;;15.40;99.90;;;;;;5067783;28;20028;-70
2021/08/19 00:21:30;;;;;;;7.40;3.67;;;15.40;99.90;;;;;;5069361;28;20404;-69
2021/08/19 00:23:58;;;;;;;6.43;3.55;;;15.50;99.90;;;;;;5070584;28;20451;-69
2021/08/19 00:26:23;;;;;;;9.82;4.47;;;15.50;99.90;;;;;;5069511;28;20032;-69
2021/08/19 00:28:49;;;;;;;7.32;3.47;;;15.60;99.90;;;;;;5070023;28;20040;-69
2021/08/19 00:31:15;;;;;;;7.43;3.75;;;15.60;99.90;;;;;;5069781;28;20473;-69
2021/08/19 00:33:40;;;;;;;8.95;3.88;;;15.70;99.90;;;;;;5064816;28;20032;-69
2021/08/19 00:36:06;;;;;;;11.07;4.07;;;15.70;99.90;;;;;;5069761;28;20024;-69
2021/08/19 00:38:31;;;;;;;7.07;3.72;;;15.80;99.90;;;;;;5069645;28;20068;-69
2021/08/19 00:40:57;;;;;;;8.13;4.05;;;15.80;99.90;;;;;;5070053;28;20411;-69
2021/08/19 00:43:23;;;;;;;10.07;4.88;;;15.80;99.90;;;;;;5069439;28;20512;-70
2021/08/19 00:45:49;;;;;;;7.70;3.72;;;15.80;99.90;;;;;;5069648;28;20040;-69
2021/08/19 00:48:14;;;;;;;6.32;3.85;;;15.80;99.90;;;;;;5069547;28;20038;-70
2021/08/19 00:50:40;;;;;;;9.18;4.15;;;15.90;99.90;;;;;;5070096;28;20077;-70
2021/08/19 00:53:06;;;;;;;6.07;3.45;;;15.90;99.90;;;;;;5069816;28;20041;-69
2021/08/19 00:55:31;;;;;;;11.73;4.38;;;15.90;99.90;;;;;;5069000;28;20025;-70
2021/08/19 00:57:57;;;;;;;6.28;3.83;;;15.90;99.90;;;;;;5069285;28;20546;-69
2021/08/19 01:00:24;;;;;;;10.63;4.80;;;16.00;99.90;;;;;;5069178;28;20044;-69
2021/08/19 01:02:54;;;;;;;6.60;3.72;;;16.00;99.90;;;;;;5069742;28;20515;-69
2021/08/19 01:05:41;;;;;;;6.95;3.45;;;16.00;99.90;;;;;;5069203;28;20041;-70
2021/08/19 01:08:08;;;;;;;8.18;3.85;;;16.10;99.90;;;;;;5069439;28;20523;-70
2021/08/19 01:10:34;;;;;;;9.27;4.47;;;16.10;99.90;;;;;;5068911;28;20500;-69
2021/08/19 01:13:00;;;;;;;9.02;4.50;;;16.10;99.90;;;;;;5069422;28;20060;-69
2021/08/19 01:15:25;;;;;;;7.90;4.15;;;16.10;99.90;;;;;;5069182;28;20107;-69
2021/08/19 01:18:01;;;;;;;8.63;4.13;;;16.10;99.90;;;;;;5068867;28;20097;-69
2021/08/19 01:20:31;;;;;;;8.85;4.32;;;16.20;99.90;;;;;;5067408;28;20036;-69
2021/08/19 01:22:57;;;;;;;8.23;4.28;;;16.20;99.90;;;;;;5069089;28;20021;-70
2021/08/19 01:25:24;;;;;;;8.07;4.60;;;16.20;99.90;;;;;;5069335;28;20094;-69
2021/08/19 01:27:52;;;;;;;9.90;4.85;;;16.20;99.90;;;;;;5068277;28;20037;-69
2021/08/19 01:30:22;;;;;;;9.93;4.75;;;16.20;99.90;;;;;;5069167;28;20032;-69
2021/08/19 01:32:48;;;;;;;13.15;5.35;;;16.20;99.90;;;;;;5068572;28;20094;-69
2021/08/19 01:35:21;;;;;;;8.63;5.22;;;16.30;99.90;;;;;;5069042;28;20104;-69
2021/08/19 01:37:47;;;;;;;9.63;5.07;;;16.30;99.90;;;;;;5067986;28;20451;-69
2021/08/19 01:40:13;;;;;;;9.15;4.55;;;16.30;99.90;;;;;;5068867;28;20024;-70
2021/08/19 01:42:41;;;;;;;10.00;5.40;;;16.30;99.90;;;;;;5068896;28;20029;-70
2021/08/19 01:45:07;;;;;;;11.23;6.15;;;16.40;99.90;;;;;;5064616;28;20067;-69
2021/08/19 01:47:32;;;;;;;10.93;5.22;;;16.30;99.90;;;;;;5068246;28;20052;-69
2021/08/19 01:49:58;;;;;;;15.15;5.38;;;16.40;99.90;;;;;;5068198;28;20036;-70
2021/08/19 01:52:23;;;;;;;11.07;4.65;;;16.40;99.90;;;;;;5068395;28;20396;-69
2021/08/19 01:54:49;;;;;;;13.82;5.07;;;16.40;99.90;;;;;;5068174;28;20097;-70
2021/08/19 01:57:15;;;;;;;12.48;5.22;;;16.40;99.90;;;;;;5068262;28;20056;-70
2021/08/19 01:59:40;;;;;;;14.82;5.63;;;16.40;99.90;;;;;;5068466;28;20103;-69
2021/08/19 02:02:06;;;;;;;11.45;4.75;;;16.40;99.90;;;;;;5068328;28;20059;-70
2021/08/19 02:04:31;;;;;;;9.48;4.97;;;16.40;99.90;;;;;;5068502;28;20028;-69
2021/08/19 02:06:57;;;;;;;10.60;5.50;;;16.50;99.90;;;;;;5066736;28;20115;-70
2021/08/19 02:09:23;;;;;;;14.70;5.45;;;16.40;99.90;;;;;;5068448;28;20036;-69
2021/08/19 02:11:49;;;;;;;9.82;4.90;;;16.40;99.90;;;;;;5067982;28;20032;-70
2021/08/19 02:14:14;;;;;;;11.30;5.50;;;16.30;99.90;;;;;;5067181;28;20032;-70
2021/08/19 02:16:40;;;;;;;11.73;5.60;;;16.20;99.90;;;;;;5067458;28;20087;-69
2021/08/19 02:19:05;;;;;;;13.70;5.93;;;16.10;99.90;;;;;;5067451;28;20028;-69
2021/08/19 02:21:31;;;;;;;11.77;5.78;;;16.10;99.90;;;;;;5068068;28;20032;-69
2021/08/19 02:23:57;;;;;;;14.93;6.35;;;16.00;99.90;;;;;;5067673;28;20062;-70
2021/08/19 02:26:22;;;;;;;10.73;5.10;;;16.00;99.90;;;;;;5066279;28;20071;-70
2021/08/19 02:28:48;;;;;;;13.30;5.72;;;16.00;99.90;;;;;;5068014;28;20033;-69
2021/08/19 02:31:13;;;;;;;12.15;6.00;;;16.10;99.90;;;;;;5067610;28;20063;-69
2021/08/19 02:33:39;;;;;;;13.77;6.30;;;16.10;99.90;;;;;;5067951;28;20040;-69
2021/08/19 02:36:04;;;;;;;13.40;6.13;;;16.10;99.90;;;;;;5067303;28;20078;-69
2021/08/19 02:38:30;;;;;;;14.32;5.90;;;16.10;99.90;;;;;;5067835;28;20485;-69
2021/08/19 02:40:56;;;;;;;12.43;5.30;;;16.10;99.90;;;;;;5065969;28;20032;-69
2021/08/19 02:43:21;;;;;;;14.70;5.78;;;16.20;99.90;;;;;;5067991;28;20029;-69
2021/08/19 02:45:47;;;;;;;11.15;5.65;;;16.20;99.90;;;;;;5066176;28;20067;-70
2021/08/19 02:48:12;;;;;;;10.05;5.40;;;16.20;99.90;;;;;;5067572;28;20037;-69
2021/08/19 02:50:38;;;;;;;11.50;6.38;;;16.20;99.90;;;;;;5067542;28;20734;-69
2021/08/19 02:53:04;;;;;;;20.15;5.75;;;16.20;99.90;;;;;;5067510;28;20381;-70
2021/08/19 02:55:29;;;;;;;12.35;5.93;;;16.20;99.90;;;;;;5067644;28;20500;-69
2021/08/19 02:57:55;;;;;;;10.43;5.57;;;16.20;99.90;;;;;;5067129;28;20044;-70
2021/08/19 03:00:20;;;;;;;17.00;6.53;;;16.30;99.90;;;;;;5067634;28;20029;-69
2021/08/19 03:02:46;;;;;;;15.98;6.50;;;16.30;99.90;;;;;;5067851;28;20530;-69
2021/08/19 03:05:11;;;;;;;12.65;6.50;;;16.30;99.90;;;;;;5067052;28;20124;-69
2021/08/19 03:07:37;;;;;;;14.77;6.32;;;16.30;99.90;;;;;;5067618;28;20025;-69
2021/08/19 03:10:05;;;;;;;11.77;6.00;;;16.30;99.90;;;;;;5067526;28;20079;-70
2021/08/19 03:12:30;;;;;;;13.40;6.45;;;16.30;99.90;;;;;;5067458;28;20162;-69
2021/08/19 03:14:56;;;;;;;14.20;6.68;;;16.30;99.90;;;;;;5067622;28;20682;-69
2021/08/19 03:17:21;;;;;;;17.33;6.47;;;16.40;99.90;;;;;;5066895;28;20634;-69
2021/08/19 03:19:47;;;;;;;12.30;5.72;;;16.30;99.90;;;;;;5070776;28;20055;-69
2021/08/19 03:22:14;;;;;;;14.18;6.60;;;16.40;99.90;;;;;;5071251;28;20044;-69
2021/08/19 03:24:41;;;;;;;15.50;6.70;;;16.40;99.90;;;;;;5071690;28;20032;-69
2021/08/19 03:27:07;;;;;;;14.52;6.85;;;16.40;99.90;;;;;;5069469;28;20075;-69
2021/08/19 03:29:32;;;;;;;14.45;5.97;;;16.40;99.90;;;;;;5071688;28;20353;-69
2021/08/19 03:31:59;;;;;;;10.27;5.97;;;16.40;99.90;;;;;;5071501;28;20033;-69
2021/08/19 03:34:24;;;;;;;13.27;6.30;;;16.40;99.90;;;;;;5070853;28;20086;-69
2021/08/19 03:36:50;;;;;;;15.20;6.35;;;16.40;99.90;;;;;;5071029;28;20036;-69
2021/08/19 03:39:16;;;;;;;11.52;6.32;;;16.40;99.90;;;;;;5069432;28;20039;-69
2021/08/19 03:41:41;;;;;;;18.42;6.22;;;16.40;99.90;;;;;;5071388;28;20025;-69
2021/08/19 03:44:09;;;;;;;15.77;5.97;;;16.50;99.90;;;;;;5070758;28;20033;-70
2021/08/19 03:46:36;;;;;;;18.48;6.82;;;16.40;99.90;;;;;;5070860;28;20184;-71
2021/08/19 03:49:02;;;;;;;13.45;5.65;;;16.40;99.90;;;;;;5069694;28;20048;-70
2021/08/19 03:51:29;;;;;;;17.02;6.03;;;16.40;99.90;;;;;;5069202;28;20036;-70
2021/08/19 03:53:56;;;;;;;10.57;5.72;;;16.40;99.90;;;;;;5070897;28;20527;-70
2021/08/19 03:56:21;;;;;;;12.35;6.05;;;16.40;99.90;;;;;;5070287;28;20149;-70
2021/08/19 03:58:47;;;;;;;13.98;6.95;;;16.40;99.90;;;;;;5070977;28;20131;-70
2021/08/19 04:01:13;;;;;;;14.25;6.45;;;16.40;99.90;;;;;;5070364;28;20028;-68
2021/08/19 04:03:38;;;;;;;13.75;6.57;;;16.40;99.90;;;;;;5069571;28;20040;-70
2021/08/19 04:06:04;;;;;;;14.07;6.75;;;16.40;99.90;;;;;;5070432;28;20028;-69
2021/08/19 04:08:29;;;;;;;13.13;6.30;;;16.40;99.90;;;;;;5070156;28;20516;-70
2021/08/19 04:10:55;;;;;;;14.05;7.18;;;16.40;99.90;;;;;;5069072;28;20566;-70
2021/08/19 04:13:20;;;;;;;13.25;6.60;;;16.40;99.90;;;;;;5070394;28;20028;-70
2021/08/19 04:15:46;;;;;;;14.05;6.55;;;16.40;99.90;;;;;;5070508;28;20120;-70
2021/08/19 04:18:13;;;;;;;14.93;6.05;;;16.40;99.90;;;;;;5070287;28;20032;-70
2021/08/19 04:20:39;;;;;;;13.77;6.63;;;16.40;99.90;;;;;;5067964;28;20142;-70
2021/08/19 04:23:05;;;;;;;14.05;6.07;;;16.40;99.90;;;;;;5070087;28;20092;-70
2021/08/19 04:25:30;;;;;;;15.20;6.93;;;16.40;99.90;;;;;;5070063;28;20115;-70
2021/08/19 04:27:56;;;;;;;15.57;6.55;;;16.40;99.90;;;;;;5070071;28;20025;-70
2021/08/19 04:30:22;;;;;;;13.80;6.25;;;16.40;99.90;;;;;;5069185;28;20040;-70
2021/08/19 04:32:48;;;;;;;14.32;6.45;;;16.50;99.90;;;;;;5068921;28;20059;-70
2021/08/19 04:35:13;;;;;;;12.90;6.57;;;16.50;99.90;;;;;;5070245;28;20028;-69
2021/08/19 04:37:39;;;;;;;14.48;6.60;;;16.40;99.90;;;;;;5067685;28;20052;-70
2021/08/19 04:40:05;;;;;;;14.38;6.57;;;16.40;99.90;;;;;;5069649;28;20029;-70
2021/08/19 04:42:31;;;;;;;12.80;6.00;;;16.40;99.90;;;;;;5067875;28;20024;-70
2021/08/19 04:44:56;;;;;;;12.77;5.45;;;16.50;99.90;;;;;;5069644;28;20090;-70
2021/08/19 04:47:22;;;;;;;11.15;5.57;;;16.40;99.90;;;;;;5067716;28;20032;-70
2021/08/19 04:49:48;;;;;;;16.48;5.68;;;16.40;99.90;;;;;;5069221;28;20509;-70
2021/08/19 04:52:13;;;;;;;16.80;6.07;;;16.50;99.90;;;;;;5069908;28;20033;-70
2021/08/19 04:54:39;;;;;;;17.65;6.18;;;16.50;99.90;;;;;;5069307;28;20124;-70
2021/08/19 04:57:05;;;;;;;12.20;4.97;;;16.50;99.90;;;;;;5069150;28;20044;-70
2021/08/19 04:59:30;;;;;;;16.40;6.38;;;16.50;99.90;;;;;;5069534;28;20039;-70
2021/08/19 05:01:56;;;;;;;14.13;5.72;;;16.50;99.90;;;;;;5068682;28;20500;-70
2021/08/19 05:04:21;;;;;;;14.20;5.88;;;16.50;99.90;;;;;;5069736;28;20079;-70
2021/08/19 05:06:47;;;;;;;16.63;5.88;;;16.50;99.90;;;;;;5068762;28;20044;-69
2021/08/19 05:09:13;;;;;;;14.25;5.40;;;16.50;99.90;;;;;;5069736;28;20055;-70
2021/08/19 05:11:38;;;;;;;11.00;5.70;;;16.50;99.90;;;;;;5069116;28;20029;-70
2021/08/19 05:14:04;;;;;;;13.85;5.07;;;16.50;99.90;;;;;;5065511;28;20127;-70
2021/08/19 05:16:31;;;;;;;12.50;5.25;;;16.50;99.90;;;;;;5065357;28;20041;-69
2021/08/19 05:18:57;;;;;;;13.38;5.22;;;16.60;99.90;;;;;;5067397;28;20066;-69
2021/08/19 05:21:24;;;;;;;14.13;5.75;;;16.60;99.90;;;;;;5068262;28;20040;-69
2021/08/19 05:23:49;;;;;;;16.63;5.45;;;16.60;99.90;;;;;;5066490;28;20044;-69
2021/08/19 05:26:16;;;;;;;10.90;5.00;;;16.60;99.90;;;;;;5066718;28;20636;-70
2021/08/19 05:28:42;;;;;;;9.55;4.50;;;16.60;99.90;;;;;;5065853;28;20033;-69
2021/08/19 05:31:08;;;;;;;13.25;4.80;;;16.60;99.90;;;;;;5066349;28;20033;-70
2021/08/19 05:33:35;;;;;;;10.70;4.40;;;16.60;99.90;;;;;;5066555;28;20036;-69
2021/08/19 05:36:00;;;;;;;13.25;4.95;;;16.60;99.90;;;;;;5066005;28;20050;-70
2021/08/19 05:38:26;;;;;;;10.50;4.38;;;16.60;99.90;;;;;;5065677;28;20476;-69
2021/08/19 05:40:51;;;;;;;12.23;5.07;;;16.60;99.90;;;;;;5065521;28;20032;-70
2021/08/19 05:43:19;;;;;;;8.82;4.55;;;16.70;99.90;;;;;;5066498;28;20032;-70
2021/08/19 05:45:44;;;;;;;8.93;4.45;;;16.70;99.90;;;;;;5064153;28;20111;-69
2021/08/19 05:48:10;;;;;;;12.57;4.65;;;16.70;99.90;;;;;;5066268;28;20120;-70
2021/08/19 05:50:35;;;;;;;9.75;4.00;;;16.70;99.90;;;;;;5066332;28;20060;-69
2021/08/19 05:53:01;;;;;;;11.05;4.53;;;16.70;99.90;;;;;;5065994;28;20032;-70
2021/08/19 05:55:27;;;;;;;6.80;3.90;;;16.70;99.90;;;;;;5066283;28;20427;-70
2021/08/19 05:57:52;;;;;;;9.68;4.68;;;16.80;99.90;;;;;;5065115;28;20131;-69
2021/08/19 06:00:21;;;;;;;11.65;4.00;;;16.80;99.90;;;;;;5065808;28;20047;-69
2021/08/19 06:02:50;;;;;;;13.48;4.88;;;16.80;99.90;;;;;;5065840;28;20050;-69
2021/08/19 06:05:16;;;;;;;7.72;4.25;;;16.80;99.90;;;;;;5065949;28;20468;-70
2021/08/19 06:07:42;;;;;;;8.73;3.95;;;16.80;99.90;;;;;;5065742;28;20048;-70
2021/08/19 06:10:08;;;;;;;10.02;4.60;;;16.80;99.90;;;;;;5065711;28;20063;-69
2021/08/19 06:12:35;;;;;;;13.20;4.47;;;16.80;99.90;;;;;;5065889;28;20032;-70
2021/08/19 06:15:01;;;;;;;7.80;3.95;;;16.90;99.90;;;;;;5065527;28;20073;-70
2021/08/19 06:17:26;;;;;;;8.23;4.32;;;16.90;99.90;;;;;;5064539;28;20036;-70
2021/08/19 06:19:52;;;;;;;11.00;4.38;;;16.90;99.90;;;;;;5063661;28;20024;-70
2021/08/19 06:22:18;;;;;;;10.43;4.13;;;16.90;99.90;;;;;;5062856;28;20036;-70
2021/08/19 06:24:43;;;;;;;9.18;4.22;;;17.00;99.90;;;;;;5065654;28;20051;-70
2021/08/19 06:27:09;;;;;;;9.25;3.83;;;17.00;99.90;;;;;;5064996;28;20131;-69
2021/08/19 06:29:35;;;;;;;9.57;3.90;;;17.00;99.90;;;;;;5065772;28;20058;-70
2021/08/19 06:32:00;;;;;;;8.45;3.50;;;16.90;99.90;;;;;;5065468;28;20077;-70
2021/08/19 06:34:26;;;;;;;8.43;3.92;;;17.00;99.90;;;;;;5064172;28;20025;-70
2021/08/19 06:36:52;;;;;;;10.48;4.00;;;17.00;99.90;;;;;;5065243;28;20044;-70
2021/08/19 06:39:18;;;;;;;8.52;3.92;;;17.00;99.90;;;;;;5065338;28;20081;-70
2021/08/19 06:41:44;;;;;;;6.43;3.05;;;17.00;99.90;;;;;;5063254;28;20093;-69
2021/08/19 06:44:10;;;;;;;7.65;3.85;;;17.00;99.90;;;;;;5065426;28;20175;-70
2021/08/19 06:46:35;;;;;;;11.32;4.40;;;17.00;99.90;;;;;;5064133;28;20123;-69
2021/08/19 06:49:01;;;;;;;8.60;3.38;;;17.00;99.90;;;;;;5065093;28;20033;-69
2021/08/19 06:51:27;;;;;;;8.63;3.17;;;17.10;99.90;;;;;;5065183;28;20040;-70
2021/08/19 06:53:53;;;;;;;8.55;3.15;;;17.10;99.90;;;;;;5065214;28;20133;-69
2021/08/19 06:56:18;;;;;;;5.32;2.85;;;17.10;99.90;;;;;;5065116;28;20144;-70
2021/08/19 06:58:44;;;;;;;7.30;3.03;;;17.10;99.90;;;;;;5065516;28;20044;-69
2021/08/19 07:01:10;;;;;;;7.57;3.63;;;17.20;99.90;;;;;;5065031;28;20028;-70
2021/08/19 07:03:36;;;;;;;6.53;3.00;;;17.20;99.90;;;;;;5065353;28;20044;-69
2021/08/19 07:06:01;;;;;;;8.05;3.30;;;17.20;99.90;;;;;;5064968;28;20051;-70
2021/08/19 07:08:27;;;;;;;7.80;3.05;;;17.30;99.90;;;;;;5064348;28;20052;-70
2021/08/19 07:10:53;;;;;;;9.18;3.03;;;17.30;99.90;;;;;;5065085;28;20043;-70
2021/08/19 07:13:18;;;;;;;10.52;3.20;;;17.30;99.90;;;;;;5065162;28;20040;-70
2021/08/19 07:15:45;;;;;;;6.03;2.83;;;17.40;99.90;;;;;;5065181;28;20135;-70
2021/08/19 07:18:12;;;;;;;5.00;2.88;;;17.40;99.90;;;;;;5065377;28;20044;-70
2021/08/19 07:20:37;;;;;;;7.25;3.10;;;17.40;99.90;;;;;;5065034;28;20032;-71
2021/08/19 07:23:03;;;;;;;6.30;3.13;;;17.40;99.90;;;;;;5065605;28;20036;-70
2021/08/19 07:25:28;;;;;;;5.75;3.47;;;17.40;99.90;;;;;;5064995;28;20078;-70
2021/08/19 07:27:54;;;;;;;6.65;3.47;;;17.40;99.90;;;;;;5064749;28;20094;-71
2021/08/19 07:30:20;;;;;;;6.18;3.13;;;17.50;99.90;;;;;;5065279;28;20633;-71
2021/08/19 07:32:45;;;;;;;10.05;3.92;;;17.50;99.90;;;;;;5065139;28;20041;-70
2021/08/19 07:35:12;;;;;;;8.88;3.50;;;17.50;99.90;;;;;;5064082;28;20032;-71
2021/08/19 07:37:49;;;;;;;5.57;3.05;;;17.60;99.90;;;;;;5064261;28;20028;-71
2021/08/19 07:40:20;;;;;;;6.75;3.35;;;17.60;99.90;;;;;;5064774;28;20512;-70
2021/08/19 07:42:46;;;;;;;8.00;3.90;;;17.60;99.90;;;;;;5061850;28;20094;-70
2021/08/19 07:45:15;;;;;;;9.10;3.35;;;17.70;99.90;;;;;;5064208;28;20036;-71
2021/08/19 07:47:41;;;;;;;7.63;3.30;;;17.70;99.90;;;;;;5064184;28;20090;-71
2021/08/19 07:50:08;;;;;;;11.40;3.33;;;17.70;99.90;;;;;;5065349;28;20040;-70
2021/08/19 07:52:34;;;;;;;6.60;3.10;;;17.70;99.90;;;;;;5063038;28;20085;-71
2021/08/19 07:55:00;;;;;;;7.82;3.35;;;17.70;99.90;;;;;;5065155;28;20047;-70
2021/08/19 07:57:25;;;;;;;7.78;3.60;;;17.70;99.90;;;;;;5064792;28;20052;-71
2021/08/19 07:59:51;;;;;;;5.97;3.15;;;17.70;99.90;;;;;;5065005;28;20499;-71
2021/08/19 08:02:16;;;;;;;7.80;3.95;;;17.90;99.90;;;;;;5065430;28;20045;-70
2021/08/19 08:04:42;;;;;;;6.43;3.53;;;17.80;99.90;;;;;;5065045;28;20714;-71
2021/08/19 08:07:08;;;;;;;6.38;3.47;;;17.90;99.90;;;;;;5068408;28;20127;-70
2021/08/19 08:09:33;;;;;;;7.45;3.60;;;17.90;99.90;;;;;;5067973;28;20063;-70
2021/08/19 08:12:00;;;;;;;9.02;4.10;;;18.00;99.90;;;;;;5068457;28;20389;-70
2021/08/19 08:14:25;;;;;;;6.72;3.40;;;18.00;99.90;;;;;;5068791;28;20037;-70
2021/08/19 08:16:51;;;;;;;6.57;3.30;;;18.00;99.90;;;;;;5067995;28;20029;-70
2021/08/19 08:19:18;;;;;;;8.80;3.42;;;18.00;99.90;;;;;;5068502;28;20125;-70
2021/08/19 08:21:44;;;;;;;6.88;3.65;;;18.20;99.90;;;;;;5067331;28;20033;-70
2021/08/19 08:24:11;;;;;;;8.02;3.25;;;18.20;99.90;;;;;;5068303;28;20028;-69
2021/08/19 08:26:37;;;;;;;9.10;3.55;;;18.20;99.90;;;;;;5067221;28;20040;-71
2021/08/19 08:29:03;;;;;;;8.70;3.50;;;18.20;99.90;;;;;;5068067;28;20127;-70
2021/08/19 08:31:30;;;;;;;10.00;3.30;;;18.20;99.90;;;;;;5068925;28;20518;-70
2021/08/19 08:33:57;;;;;;;6.78;3.50;;;18.20;99.90;;;;;;5067808;28;20397;-69
2021/08/19 08:36:22;;;;;;;10.15;3.28;;;18.20;99.90;;;;;;5067871;28;20033;-69
2021/08/19 08:38:48;;;;;;;8.93;3.90;;;18.30;99.90;;;;;;5064582;28;20457;-70
2021/08/19 08:41:16;;;;;;;8.15;3.80;;;18.30;99.90;;;;;;5068198;28;20066;-70
2021/08/19 08:43:42;;;;;;;6.20;3.45;;;18.30;99.90;;;;;;5067748;28;20120;-70
2021/08/19 08:46:10;;;;;;;8.18;3.88;;;18.30;99.90;;;;;;5067763;28;20062;-71
2021/08/19 08:48:36;;;;;;;7.10;3.35;;;18.20;99.90;;;;;;5067424;28;20032;-71
2021/08/19 08:51:02;;;;;;;6.57;3.50;;;18.20;99.90;;;;;;5067691;28;20083;-71
2021/08/19 08:53:28;;;;;;;8.75;3.40;;;18.30;99.90;;;;;;5067808;28;20032;-71
2021/08/19 08:55:54;;;;;;;6.38;3.22;;;18.20;99.90;;;;;;5065826;28;20028;-71
2021/08/19 08:58:20;;;;;;;8.55;3.78;;;18.20;99.90;;;;;;5066315;28;20039;-70
2021/08/19 09:00:47;;;;;;;6.93;3.10;;;18.20;99.90;;;;;;5067347;28;20033;-70
2021/08/19 09:03:16;;;;;;;8.90;3.75;;;18.20;99.90;;;;;;5063765;28;20028;-70
2021/08/19 09:05:52;;;;;;;7.75;3.80;;;18.20;99.90;;;;;;5065003;28;20051;-71
2021/08/19 09:08:19;;;;;;;9.40;3.92;;;18.20;99.90;;;;;;5067423;28;20052;-70
2021/08/19 09:10:47;;;;;;;6.32;3.30;;;18.20;99.90;;;;;;5067758;28;20041;-70
2021/08/19 09:13:18;;;;;;;10.80;4.00;;;18.30;99.90;;;;;;5066467;28;20549;-70
2021/08/19 09:15:46;;;;;;;9.38;3.55;;;18.30;99.90;;;;;;5066691;28;20090;-70
2021/08/19 09:18:26;;;;;;;11.10;3.78;;;18.40;99.90;;;;;;5064661;28;20036;-71
2021/08/19 09:20:51;;;;;;;8.60;3.25;;;18.50;99.90;;;;;;5064440;28;20044;-70
2021/08/19 09:23:17;;;;;;;9.10;3.30;;;18.40;99.90;;;;;;5067052;28;20024;-70
2021/08/19 09:25:45;;;;;;;10.38;3.42;;;18.30;99.90;;;;;;5067210;28;20037;-70
2021/08/19 09:28:22;;;;;;;8.10;3.60;;;18.30;99.90;;;;;;5066141;28;20450;-71
2021/08/19 09:31:02;;;;;;;8.13;4.05;;;18.30;99.90;;;;;;5067087;28;20385;-70
2021/08/19 09:33:30;;;;;;;7.50;3.55;;;18.20;99.90;;;;;;5064748;28;20107;-70
2021/08/19 09:36:06;;;;;;;7.07;3.30;;;18.20;99.90;;;;;;5066455;28;20488;-70
2021/08/19 09:38:58;;;;;;;7.25;3.28;;;18.20;99.90;;;;;;5066590;28;20029;-70
2021/08/19 09:41:23;;;;;;;5.88;3.17;;;18.20;99.90;;;;;;5061046;28;20029;-69
2021/08/19 09:43:53;;;;;;;9.25;3.72;;;18.30;99.90;;;;;;5066762;28;20036;-69
2021/08/19 09:46:31;;;;;;;10.57;3.53;;;18.30;99.90;;;;;;5064912;28;20480;-69
2021/08/19 09:48:59;;;;;;;6.80;3.40;;;18.30;99.90;;;;;;5065163;28;20036;-69
2021/08/19 09:51:24;;;;;;;9.15;3.90;;;18.30;99.90;;;;;;5066086;28;20025;-69
2021/08/19 09:53:53;;;;;;;7.55;3.40;;;18.30;99.90;;;;;;5066021;28;20409;-69
2021/08/19 09:56:27;;;;;;;9.52;3.95;;;18.40;99.90;;;;;;5064249;28;20028;-70
2021/08/19 09:58:53;;;;;;;5.65;3.03;;;18.60;99.90;;;;;;5058196;28;20533;-70
2021/08/19 10:01:19;;;;;;;7.50;3.15;;;18.70;99.90;;;;;;5063159;28;20047;-70
2021/08/19 10:03:45;;;;;;;6.80;3.00;;;18.80;99.90;;;;;;5063909;28;20044;-70
2021/08/19 10:06:11;;;;;;;9.43;3.92;;;18.90;99.90;;;;;;5062791;28;20090;-70
2021/08/19 10:08:36;;;;;;;11.50;3.83;;;19.00;99.90;;;;;;5063589;28;20027;-69
2021/08/19 10:11:03;;;;;;;7.38;3.10;;;19.00;99.90;;;;;;5062700;28;20044;-69
2021/08/19 10:13:29;;;;;;;9.07;3.05;;;19.00;99.90;;;;;;5062229;28;20084;-69
2021/08/19 10:15:55;;;;;;;7.13;3.70;;;19.00;99.90;;;;;;5063962;28;20098;-70
2021/08/19 10:18:27;;;;;;;5.78;3.05;;;19.10;99.90;;;;;;5059843;28;20090;-69
2021/08/19 10:20:58;;;;;;;5.00;3.00;;;19.20;99.90;;;;;;5063372;28;20032;-70
2021/08/19 10:23:25;;;;;;;8.95;3.15;;;19.20;99.90;;;;;;5062946;28;20040;-70
2021/08/19 10:26:05;;;;;;;8.77;3.05;;;19.10;99.90;;;;;;5063781;28;20040;-69
2021/08/19 10:28:46;;;;;;;6.63;3.45;;;19.00;99.90;;;;;;5061590;28;20039;-69
2021/08/19 10:31:14;;;;;;;8.25;3.78;;;19.10;99.90;;;;;;5063165;28;20128;-69
2021/08/19 10:33:39;;;;;;;4.70;3.25;;;19.00;99.90;;;;;;5060389;28;20029;-69
2021/08/19 10:36:28;;;;;;;7.90;3.80;;;19.00;99.90;;;;;;5061424;28;20027;-69
2021/08/19 10:39:25;;;;;;;7.03;3.65;;;18.90;99.90;;;;;;5050459;28;20097;-71
2021/08/19 10:41:52;;;;;;;6.63;3.85;;;18.90;99.90;;;;;;5062605;28;20033;-71
2021/08/19 10:44:18;;;;;;;5.45;3.08;;;19.00;99.90;;;;;;5060704;28;20531;-71
2021/08/19 10:46:46;;;;;;;8.77;3.58;;;19.10;99.90;;;;;;5062503;28;20040;-68
2021/08/19 10:49:41;;;;;;;8.65;4.28;;;19.10;99.90;;;;;;5062864;28;20086;-70
2021/08/19 10:52:07;;;;;;;5.82;2.85;;;19.40;99.90;;;;;;5048283;28;20035;-69
2021/08/19 10:54:41;;;;;;;5.40;3.10;;;19.50;99.90;;;;;;5062157;28;20049;-69
2021/08/19 10:57:27;;;;;;;7.93;3.65;;;19.60;99.90;;;;;;5061731;28;20037;-69
2021/08/19 11:00:07;;;;;;;5.35;2.30;;;19.60;99.90;;;;;;5065255;28;20055;-69
2021/08/19 11:02:39;;;;;;;5.60;2.88;;;19.50;99.90;;;;;;5066054;28;20025;-70
2021/08/19 11:05:07;;;;;;;4.75;2.70;;;19.30;99.90;;;;;;5064896;28;20028;-70
2021/08/19 11:07:47;;;;;;;4.45;2.92;;;19.20;99.90;;;;;;5063449;28;20036;-70
2021/08/19 11:10:27;;;;;;;;;;;19.10;99.90;;;;;;5063996;28;20045;-71
2021/08/19 11:12:59;;;;;;;4.47;2.70;;;19.00;99.90;;;;;;5064132;28;19912;-71
2021/08/19 11:15:25;;;;;;;5.55;3.00;;;19.00;99.90;;;;;;5065299;28;20025;-71
2021/08/19 11:17:55;;;;;;;6.57;3.95;;;19.10;99.90;;;;;;5064794;28;20124;-70
2021/08/19 11:20:31;;;;;;;7.00;3.70;;;19.10;99.90;;;;;;5065588;28;20037;-71
2021/08/19 11:23:10;;;;;;;9.02;3.83;;;19.00;99.90;;;;;;5065424;28;20128;-71
2021/08/19 11:25:42;;;;;;;12.13;5.30;;;19.00;99.90;;;;;;5065070;28;20029;-70
2021/08/19 11:28:11;;;;;;;8.63;3.83;;;18.90;99.90;;;;;;5063060;28;20446;-69
2021/08/19 11:30:46;;;;;;;8.45;3.28;;;18.90;99.90;;;;;;5063591;28;20043;-69
2021/08/19 11:33:14;;;;;;;7.40;3.53;;;18.90;99.90;;;;;;5063561;28;20056;-70
2021/08/19 11:35:40;;;;;;;7.53;3.58;;;18.80;99.90;;;;;;5064375;28;20042;-70
2021/08/19 11:38:13;;;;;;;4.15;2.45;;;18.90;99.90;;;;;;5065323;28;20032;-70
2021/08/19 11:40:40;;;;;;;5.55;2.40;;;18.90;99.90;;;;;;5064996;28;20025;-70
2021/08/19 11:43:27;;;;;;;3.85;2.22;;;18.90;99.90;;;;;;5065953;28;20089;-70
2021/08/19 11:46:04;;;;;;;4.00;2.20;;;19.00;99.90;;;;;;5065720;28;20033;-70
2021/08/19 11:48:30;;;;;;;7.35;2.67;;;19.00;99.90;;;;;;5067568;28;20037;-71
2021/08/19 11:50:58;;;;;;;5.03;2.38;;;19.00;99.90;;;;;;5069133;28;20181;-70
2021/08/19 11:53:24;;;;;;;3.38;1.95;;;19.00;99.90;;;;;;5068072;28;20025;-71
2021/08/19 11:55:50;;;;;;;6.32;2.10;;;18.90;99.90;;;;;;5068391;28;20107;-70
2021/08/19 11:58:22;;;;;;;5.53;2.03;;;18.80;99.90;;;;;;5068584;28;20040;-70
2021/08/19 12:00:57;;;;;;;4.43;2.70;;;18.70;99.90;;;;;;5066435;28;20400;-70
2021/08/19 12:03:23;;;;;;;5.28;2.05;;;18.70;99.90;;;;;;5067709;28;20107;-71
2021/08/19 12:06:06;;;;;;;3.03;2.42;;;18.70;99.90;;;;;;5067770;28;20068;-70
2021/08/19 12:08:34;;;;;;;5.32;1.92;;;18.60;99.90;;;;;;5066403;28;20120;-69
2021/08/19 12:11:01;;;;;;;4.82;1.67;;;18.60;99.90;;;;;;5067986;28;20522;-70
2021/08/19 12:13:28;;;;;;;3.35;1.85;;;18.60;99.90;;;;;;5068159;28;20033;-70
2021/08/19 12:15:54;;;;;;;4.07;1.90;;;18.60;99.90;;;;;;5068085;28;20524;-70
2021/08/19 12:18:21;;;;;;;3.28;1.83;;;18.90;99.90;;;;;;5066318;28;20033;-70
2021/08/19 12:20:48;;;;;;;4.75;2.15;;;19.00;99.90;;;;;;5068480;28;20127;-69
2021/08/19 12:23:22;;;;;;;4.85;1.88;;;19.00;99.90;;;;;;5063120;28;20039;-70
2021/08/19 12:25:49;;;;;;;3.13;1.95;;;19.00;99.90;;;;;;5067314;28;20568;-71
2021/08/19 12:28:16;;;;;;;4.70;2.00;;;19.10;99.90;;;;;;5069019;28;20416;-70
2021/08/19 12:30:55;;;;;;;6.15;2.10;;;19.10;99.90;;;;;;5067382;28;20070;-70
2021/08/19 12:33:40;;;;;;;4.75;1.80;;;19.00;99.90;;;;;;5068878;28;20029;-71
2021/08/19 12:36:16;;;;;;;5.15;2.13;;;19.00;99.90;;;;;;5064628;28;20397;-70
2021/08/19 12:38:44;;;;;;;4.30;2.17;;;18.90;99.90;;;;;;5065842;28;20037;-71
2021/08/19 12:41:14;;;;;;;5.10;2.70;;;18.80;99.90;;;;;;5067732;28;20083;-70
2021/08/19 12:43:41;;;;;;;11.98;2.90;;;18.60;99.90;;;;;;5067604;28;20040;-70
2021/08/19 12:46:08;;;;;;;6.05;2.50;;;18.50;99.90;;;;;;5067152;28;20040;-70